Time;durP1;ratioP1;P1;durP2;ratioP2;P2;SDS_P1;SDS_P2;PMS_P1;PMS_P2;Temp;Humidity;BMP_temperature;BMP_pressure;BME280_temperature;BME280_humidity;BME280_pressure;Samples;Min_cycle;Max_cycle;Signal;HPM_P1;HPM_P2
2021/01/06 00:02:31;;;;;;;1.50;1.50;;;;;;;-1.19;80.88;102937.09;6296362;28;21109;-77
2021/01/06 00:05:57;;;;;;;1.37;1.37;;;;;;;-1.19;80.06;102935.28;6279948;28;20936;-77
2021/01/06 00:09:20;;;;;;;1.20;1.20;;;;;;;-1.14;80.26;102943.91;6283253;28;20210;-77
2021/01/06 00:12:24;;;;;;;1.40;1.40;;;;;;;-1.18;79.91;102918.25;6289877;28;20198;-77
2021/01/06 00:15:31;;;;;;;1.40;1.40;;;;;;;-1.71;80.32;102825.03;6293758;28;20210;-77
2021/01/06 00:18:42;;;;;;;1.10;1.10;;;;;;;-1.17;80.47;102924.47;6288527;28;20196;-78
2021/01/06 00:21:50;;;;;;;1.30;1.30;;;;;;;-1.05;80.20;102931.81;6291151;28;20990;-77
2021/01/06 00:24:54;;;;;;;1.20;1.20;;;;;;;-1.11;80.32;102921.44;6286881;28;20204;-77
2021/01/06 00:27:58;;;;;;;1.33;1.33;;;;;;;-1.37;79.80;102883.69;6270059;28;20583;-77
2021/01/06 00:31:03;;;;;;;1.73;1.37;;;;;;;-1.24;80.50;102915.09;6288890;28;20278;-77
2021/01/06 00:34:07;;;;;;;1.40;1.40;;;;;;;-1.31;81.17;102915.44;6314199;28;20605;-77
2021/01/06 00:37:17;;;;;;;1.70;1.70;;;;;;;-1.32;81.13;102913.72;6291223;28;20348;-76
2021/01/06 00:40:29;;;;;;;1.30;1.30;;;;;;;-1.29;80.94;102913.56;6288131;28;20309;-77
2021/01/06 00:43:43;;;;;;;1.40;1.40;;;;;;;-1.40;81.85;102899.91;6288653;28;20218;-76
2021/01/06 00:46:47;;;;;;;1.30;1.30;;;;;;;-1.27;81.93;102913.44;6291076;28;20270;-77
2021/01/06 00:49:51;;;;;;;1.40;1.40;;;;;;;-1.23;81.84;102917.66;6289972;28;20616;-76
2021/01/06 00:52:58;;;;;;;1.40;1.40;;;;;;;-1.20;81.78;102919.28;6268314;28;20206;-77
2021/01/06 00:56:06;;;;;;;1.33;1.33;;;;;;;-1.36;81.87;102922.00;6266040;28;20207;-78
2021/01/06 00:59:13;;;;;;;1.37;1.37;;;;;;;-1.33;82.28;102916.47;6290349;28;20284;-79
2021/01/06 01:02:19;;;;;;;1.20;1.20;;;;;;;-1.39;82.27;102912.34;6270482;28;20225;-77
2021/01/06 01:05:31;;;;;;;1.60;1.50;;;;;;;-1.42;81.30;102912.53;6274264;28;20679;-77
2021/01/06 01:08:37;;;;;;;1.70;1.70;;;;;;;-1.48;82.43;102915.56;6287382;28;20202;-77
2021/01/06 01:11:40;;;;;;;4.60;1.63;;;;;;;-1.43;82.57;102912.63;6293806;28;20713;-77
2021/01/06 01:14:43;;;;;;;1.90;1.80;;;;;;;-1.48;82.71;102923.59;6290798;28;20197;-76
2021/01/06 01:17:47;;;;;;;1.60;1.60;;;;;;;-1.37;81.84;102909.59;6288103;28;20209;-77
2021/01/06 01:20:53;;;;;;;1.60;1.60;;;;;;;-1.21;81.59;102909.56;6289203;28;20183;-77
2021/01/06 01:23:57;;;;;;;1.53;1.53;;;;;;;-1.44;81.38;102887.66;6286298;28;20226;-77
2021/01/06 01:27:01;;;;;;;1.90;1.80;;;;;;;-1.41;81.84;102887.47;6290438;28;20338;-77
2021/01/06 01:30:09;;;;;;;1.90;1.90;;;;;;;-1.35;82.43;102905.88;6280009;28;20258;-76
2021/01/06 01:33:23;;;;;;;1.60;1.60;;;;;;;-1.39;82.54;102892.75;6282589;28;20203;-76
2021/01/06 01:36:30;;;;;;;1.73;1.73;;;;;;;-1.58;81.62;102874.22;6280307;28;20550;-78
2021/01/06 01:39:35;;;;;;;1.80;1.80;;;;;;;-1.72;82.33;102855.41;6300382;28;20190;-77
2021/01/06 01:42:38;;;;;;;2.30;2.30;;;;;;;-1.71;82.48;102867.84;6291320;28;20293;-77
2021/01/06 01:46:26;;;;;;;1.80;1.80;;;;;;;-1.62;82.22;102888.75;6284802;28;20199;-77
2021/01/06 01:49:39;;;;;;;1.83;1.83;;;;;;;-1.83;82.64;102847.16;6290151;28;20199;-77
2021/01/06 01:52:50;;;;;;;2.20;2.20;;;;;;;-1.80;82.46;102841.66;6290097;28;20227;-77
2021/01/06 01:55:54;;;;;;;1.60;1.60;;;;;;;-1.86;83.24;102852.69;6282662;28;20203;-77
2021/01/06 01:58:58;;;;;;;2.10;2.10;;;;;;;-1.57;82.33;102886.66;6287685;28;20306;-77
2021/01/06 02:02:10;;;;;;;1.80;1.80;;;;;;;-1.63;82.57;102878.13;6288200;28;20210;-77
2021/01/06 02:05:27;;;;;;;2.20;2.20;;;;;;;-1.60;83.49;102884.16;6280154;28;20349;-77
2021/01/06 02:08:51;;;;;;;1.93;1.87;;;;;;;-1.62;83.06;102871.81;6281738;28;20200;-77
2021/01/06 02:12:03;;;;;;;1.97;1.93;;;;;;;-1.63;82.65;102870.94;6274143;28;20198;-76
2021/01/06 02:15:19;;;;;;;5.70;2.10;;;;;;;-1.69;83.33;102878.47;6280702;28;20201;-77
2021/01/06 02:18:35;;;;;;;2.10;2.00;;;;;;;-1.73;83.02;102859.06;6284538;28;20210;-77
2021/01/06 02:21:39;;;;;;;1.80;1.70;;;;;;;-1.77;83.29;102859.34;6282093;28;20202;-77
2021/01/06 02:24:44;;;;;;;2.30;2.23;;;;;;;-1.65;82.74;102858.63;6290326;28;20229;-76
2021/01/06 02:27:51;;;;;;;2.30;2.20;;;;;;;-1.64;82.72;102842.44;6281493;28;20235;-77
2021/01/06 02:30:55;;;;;;;2.07;2.07;;;;;;;-1.56;82.65;102852.69;6289627;28;20309;-76
2021/01/06 02:33:58;;;;;;;1.93;1.83;;;;;;;-1.55;82.50;102841.94;6277777;28;20564;-76
2021/01/06 02:37:05;;;;;;;2.10;2.10;;;;;;;-1.53;81.74;102856.06;6285805;28;20252;-76
2021/01/06 02:40:12;;;;;;;2.47;2.37;;;;;;;-1.57;82.60;102857.22;6281274;28;20195;-76
2021/01/06 02:43:28;;;;;;;2.03;1.97;;;;;;;-1.64;82.45;102842.44;6287956;28;20254;-78
2021/01/06 02:46:32;;;;;;;1.70;1.70;;;;;;;-1.72;81.80;102844.72;6320590;28;20286;-77
2021/01/06 02:49:35;;;;;;;2.30;2.30;;;;;;;-1.73;82.62;102826.94;6294199;28;20198;-77
2021/01/06 02:52:46;;;;;;;2.00;2.00;;;;;;;-1.71;82.65;102842.91;6285859;28;20232;-78
2021/01/06 02:55:51;;;;;;;2.00;2.00;;;;;;;-1.78;83.13;102834.38;6288822;28;20206;-78
2021/01/06 02:58:55;;;;;;;2.07;2.07;;;;;;;-1.78;83.40;102826.34;6288649;28;20227;-76
2021/01/06 03:02:01;;;;;;;2.30;2.20;;;;;;;-1.86;83.63;102809.00;6287567;28;20192;-76
2021/01/06 03:05:19;;;;;;;2.33;2.23;;;;;;;-1.87;82.97;102812.66;6288123;28;20747;-77
2021/01/06 03:08:26;;;;;;;2.00;2.00;;;;;;;-1.77;83.04;102820.03;6286812;28;20199;-77
2021/01/06 03:11:29;;;;;;;2.30;2.20;;;;;;;-1.75;82.93;102811.94;6292353;28;20210;-77
2021/01/06 03:14:34;;;;;;;2.13;2.13;;;;;;;-2.11;83.14;102761.44;6287065;28;20206;-77
2021/01/06 03:17:38;;;;;;;2.33;2.30;;;;;;;-1.76;83.59;102804.84;6288120;28;20290;-77
2021/01/06 03:20:43;;;;;;;2.53;2.33;;;;;;;-1.78;83.06;102812.97;6282653;28;20238;-78
2021/01/06 03:23:51;;;;;;;2.43;2.20;;;;;;;-1.82;83.09;102800.69;6291008;28;20622;-77
2021/01/06 03:26:58;;;;;;;2.20;2.20;;;;;;;-1.74;83.05;102802.94;6280904;28;20260;-77
2021/01/06 03:30:04;;;;;;;2.67;2.47;;;;;;;-1.80;83.05;102782.78;6288965;28;20240;-77
2021/01/06 03:33:21;;;;;;;2.30;2.20;;;;;;;-1.87;83.10;102767.16;6285767;28;20237;-77
2021/01/06 03:36:31;;;;;;;2.93;2.83;;;;;;;-1.92;84.06;102768.28;6290874;28;20205;-77
2021/01/06 03:39:42;;;;;;;2.50;2.37;;;;;;;-1.71;83.62;102798.28;6278130;28;20231;-77
2021/01/06 03:42:46;;;;;;;2.23;2.23;;;;;;;-1.75;83.52;102787.84;6280020;28;20217;-76
2021/01/06 03:45:53;;;;;;;2.53;2.43;;;;;;;-2.46;83.65;102680.56;6286376;28;20218;-78
2021/01/06 03:49:02;;;;;;;2.50;2.40;;;;;;;-1.81;84.08;102791.75;6284671;28;20199;-78
2021/01/06 03:52:13;;;;;;;2.30;2.20;;;;;;;-1.73;84.08;102784.13;6297108;28;20282;-76
2021/01/06 03:55:35;;;;;;;2.50;2.40;;;;;;;-1.78;83.93;102786.22;6292238;28;20525;-76
2021/01/06 03:58:49;;;;;;;2.90;2.80;;;;;;;-1.69;83.77;102780.31;6281502;28;20284;-76
2021/01/06 04:02:03;;;;;;;3.03;2.70;;;;;;;-1.76;84.06;102778.09;6280336;28;20195;-77
2021/01/06 04:05:15;;;;;;;2.57;2.47;;;;;;;-1.96;84.56;102760.53;6281469;28;20217;-78
2021/01/06 04:08:38;;;;;;;2.83;2.67;;;;;;;-1.90;84.96;102776.25;6285939;28;20200;-78
2021/01/06 04:11:42;;;;;;;2.60;2.50;;;;;;;-1.79;84.62;102773.78;6281968;28;20206;-77
2021/01/06 04:14:46;;;;;;;2.87;2.67;;;;;;;-1.78;84.57;102780.00;6289073;28;20602;-76
2021/01/06 04:17:51;;;;;;;3.03;2.83;;;;;;;-1.84;83.71;102775.84;6289814;28;20189;-76
2021/01/06 04:20:55;;;;;;;2.80;2.70;;;;;;;-1.90;84.07;102787.78;6288609;28;20538;-77
2021/01/06 04:23:58;;;;;;;3.07;2.97;;;;;;;-1.87;83.99;102781.38;6276584;28;20526;-77
2021/01/06 04:27:03;;;;;;;2.40;2.40;;;;;;;-1.84;84.78;102775.84;6296378;28;20543;-77
2021/01/06 04:30:11;;;;;;;2.70;2.60;;;;;;;-1.88;83.90;102774.34;6313635;28;20209;-77
2021/01/06 04:33:27;;;;;;;2.70;2.60;;;;;;;-1.91;84.09;102779.84;6311894;28;20255;-77
2021/01/06 04:36:32;;;;;;;2.83;2.63;;;;;;;-2.11;83.13;102710.63;6308301;28;20249;-77
2021/01/06 04:39:35;;;;;;;2.60;2.50;;;;;;;-1.87;83.86;102770.69;6307463;28;20193;-77
2021/01/06 04:42:40;;;;;;;2.67;2.57;;;;;;;-1.91;83.13;102769.16;6307907;28;20320;-77
2021/01/06 04:45:51;;;;;;;3.10;2.90;;;;;;;-1.89;84.12;102756.53;6306667;28;21320;-78
2021/01/06 04:49:06;;;;;;;2.73;2.70;;;;;;;-1.83;84.11;102756.19;6314896;28;20186;-76
2021/01/06 04:52:33;;;;;;;2.80;2.70;;;;;;;-1.78;83.10;102759.44;6305604;28;20296;-77
2021/01/06 04:55:51;;;;;;;2.67;2.57;;;;;;;-1.77;83.25;102755.81;6304565;28;20221;-77
2021/01/06 04:59:06;;;;;;;2.87;2.77;;;;;;;-1.81;83.26;102742.72;6318105;28;20194;-77
2021/01/06 05:02:24;;;;;;;3.03;2.80;;;;;;;-1.83;83.58;102745.50;6300632;28;20236;-77
2021/01/06 05:05:43;;;;;;;3.80;3.33;;;;;;;-1.88;83.43;102731.53;6299341;28;20222;-77
2021/01/06 05:08:51;;;;;;;2.47;2.47;;;;;;;-1.91;82.83;102721.00;6312503;28;20277;-77
2021/01/06 05:12:02;;;;;;;2.50;2.40;;;;;;;-2.06;82.37;102684.47;6309326;28;20197;-77
2021/01/06 05:15:35;;;;;;;2.73;2.63;;;;;;;-1.76;83.12;102724.56;6313336;28;20293;-76
2021/01/06 05:18:42;;;;;;;3.00;2.90;;;;;;;-1.69;82.66;102726.78;6311267;28;20643;-77
2021/01/06 05:21:46;;;;;;;2.87;2.77;;;;;;;-1.73;82.89;102717.22;6308292;28;20222;-77
2021/01/06 05:24:52;;;;;;;3.80;3.50;;;;;;;-1.84;83.61;102717.00;6308965;28;20308;-76
2021/01/06 05:27:57;;;;;;;3.27;3.07;;;;;;;-1.70;82.71;102725.06;6290196;28;20237;-77
2021/01/06 05:31:01;;;;;;;3.20;3.00;;;;;;;-1.70;82.87;102725.06;6286499;28;20277;-76
2021/01/06 05:34:07;;;;;;;3.20;3.10;;;;;;;-1.76;83.32;102719.22;6283065;28;20214;-77
2021/01/06 05:37:19;;;;;;;4.00;3.30;;;;;;;-1.62;83.11;102717.44;6288441;28;20202;-78
2021/01/06 05:40:24;;;;;;;3.57;3.37;;;;;;;-1.61;83.80;102716.47;6277794;28;20191;-77
2021/01/06 05:43:43;;;;;;;2.90;2.70;;;;;;;-1.81;83.44;102694.53;6278326;28;20869;-77
2021/01/06 05:46:48;;;;;;;2.53;2.43;;;;;;;-1.91;82.87;102711.16;6279591;28;20252;-77
2021/01/06 05:49:53;;;;;;;2.80;2.80;;;;;;;-1.65;83.04;102714.94;6275253;28;20369;-77
2021/01/06 05:53:02;;;;;;;3.00;2.77;;;;;;;-1.68;83.55;102719.59;6284449;28;20208;-77
2021/01/06 05:56:37;;;;;;;2.93;2.80;;;;;;;-1.69;82.53;102713.38;6265283;28;20202;-77
2021/01/06 06:00:03;;;;;;;3.00;2.70;;;;;;;-1.67;82.44;102708.78;6282421;28;20200;-77
2021/01/06 06:03:41;;;;;;;2.70;2.60;;;;;;;-1.65;83.11;102701.56;6300728;28;20204;-77
2021/01/06 06:06:54;;;;;;;3.00;2.93;;;;;;;-1.56;83.11;102719.72;6269196;28;21293;-77
2021/01/06 06:10:19;;;;;;;2.27;2.27;;;;;;;-1.70;82.55;102725.06;6279549;28;20203;-76
2021/01/06 06:13:55;;;;;;;2.57;2.57;;;;;;;-1.77;83.56;102718.34;6268985;28;20195;-76
2021/01/06 06:17:04;;;;;;;3.17;2.93;;;;;;;-1.75;83.66;102711.09;6278338;28;20274;-76
2021/01/06 06:20:25;;;;;;;3.10;2.90;;;;;;;-1.63;82.42;102721.06;6281990;28;20225;-76
2021/01/06 06:23:52;;;;;;;2.97;2.87;;;;;;;-1.74;83.44;102718.16;6280423;28;20219;-77
2021/01/06 06:27:04;;;;;;;2.90;2.70;;;;;;;-1.77;83.52;102722.84;6279706;28;21097;-76
2021/01/06 06:30:22;;;;;;;2.70;2.60;;;;;;;-1.68;83.46;102717.81;6288767;28;20247;-76
2021/01/06 06:33:36;;;;;;;3.00;2.90;;;;;;;-1.66;83.24;102715.88;6286546;28;20198;-78
2021/01/06 06:36:46;;;;;;;2.83;2.73;;;;;;;-1.68;82.58;102696.38;6292099;28;20697;-76
2021/01/06 06:40:09;;;;;;;2.90;2.80;;;;;;;-1.63;82.72;102670.22;6291945;28;20249;-77
2021/01/06 06:43:28;;;;;;;2.77;2.60;;;;;;;-1.60;82.12;102693.25;6285618;28;20233;-76
2021/01/06 06:46:39;;;;;;;2.90;2.80;;;;;;;-1.65;81.78;102685.50;6278895;28;20207;-77
2021/01/06 06:50:13;;;;;;;3.00;2.70;;;;;;;-1.54;82.09;102693.72;6280772;28;20213;-77
2021/01/06 06:53:49;;;;;;;2.70;2.70;;;;;;;-1.57;81.63;102693.94;6278949;28;20755;-77
2021/01/06 06:56:56;;;;;;;2.53;2.43;;;;;;;-1.48;81.82;102688.00;6284183;28;20343;-77
2021/01/06 07:00:10;;;;;;;3.47;2.50;;;;;;;-1.54;82.39;102688.34;6281919;28;20218;-76
2021/01/06 07:03:43;;;;;;;3.00;2.90;;;;;;;-1.60;81.96;102688.75;6282421;28;20267;-77
2021/01/06 07:06:57;;;;;;;2.57;2.57;;;;;;;-1.67;81.55;102684.72;6282671;28;20975;-77
2021/01/06 07:10:06;;;;;;;2.53;2.50;;;;;;;-1.69;82.15;102678.59;6305660;28;20648;-77
2021/01/06 07:13:22;;;;;;;2.60;2.50;;;;;;;-1.75;82.51;102662.06;6288722;28;20294;-77
2021/01/06 07:16:40;;;;;;;2.93;2.83;;;;;;;-1.80;82.35;102659.69;6284767;28;20205;-77
2021/01/06 07:19:57;;;;;;;2.90;2.80;;;;;;;-1.74;82.43;102659.28;6285274;28;20661;-77
2021/01/06 07:23:10;;;;;;;2.90;2.70;;;;;;;-1.54;82.72;102699.06;6281684;28;20197;-77
2021/01/06 07:26:19;;;;;;;2.73;2.63;;;;;;;-1.61;83.23;102697.72;6279985;28;20690;-77
2021/01/06 07:29:24;;;;;;;2.60;2.50;;;;;;;-1.67;82.97;102687.38;6285476;28;20243;-77
2021/01/06 07:32:36;;;;;;;2.90;2.70;;;;;;;-1.63;83.50;102694.28;6281231;28;20634;-77
2021/01/06 07:35:42;;;;;;;2.67;2.60;;;;;;;-1.59;83.40;102679.75;6283490;28;20676;-77
2021/01/06 07:38:47;;;;;;;2.70;2.70;;;;;;;-1.54;82.44;102693.72;6282795;28;20655;-77
2021/01/06 07:41:52;;;;;;;3.00;2.90;;;;;;;-1.50;82.50;102684.56;6282441;28;20203;-77
2021/01/06 07:45:10;;;;;;;5.40;2.77;;;;;;;-1.51;83.01;102685.50;6283272;28;20684;-77
2021/01/06 07:48:39;;;;;;;3.13;3.03;;;;;;;-1.44;82.59;102673.44;6281671;28;20198;-76
2021/01/06 07:51:55;;;;;;;3.10;3.00;;;;;;;-1.47;82.26;102662.97;6281067;28;20219;-77
2021/01/06 07:55:05;;;;;;;2.60;2.60;;;;;;;-1.43;82.99;102668.97;6283262;28;20205;-76
2021/01/06 07:58:17;;;;;;;2.80;2.70;;;;;;;-1.54;82.72;102683.00;6268530;28;20209;-78
2021/01/06 08:01:42;;;;;;;3.17;3.00;;;;;;;-1.65;83.28;102672.13;6284719;28;20195;-76
2021/01/06 08:05:02;;;;;;;3.03;2.87;;;;;;;-1.47;83.67;102679.03;6283066;28;20342;-76
2021/01/06 08:08:10;;;;;;;2.57;2.47;;;;;;;-1.42;83.68;102676.91;6283604;28;20605;-77
2021/01/06 08:11:18;;;;;;;2.60;2.60;;;;;;;-1.61;83.09;102665.59;6275190;28;20212;-77
2021/01/06 08:14:27;;;;;;;3.03;2.93;;;;;;;-1.44;83.53;102672.63;6282430;28;20224;-77
2021/01/06 08:17:42;;;;;;;2.90;2.80;;;;;;;-1.41;83.67;102664.38;6303688;28;20649;-77
2021/01/06 08:20:55;;;;;;;2.77;2.67;;;;;;;-1.41;83.68;102678.63;6287322;28;20669;-78
2021/01/06 08:24:09;;;;;;;3.13;2.93;;;;;;;-1.33;83.32;102665.63;6264501;28;20762;-76
2021/01/06 08:27:17;;;;;;;2.87;2.77;;;;;;;-1.53;83.36;102647.25;6285674;28;20815;-76
2021/01/06 08:30:24;;;;;;;3.10;3.00;;;;;;;-1.33;83.44;102662.94;6310367;28;20194;-76
2021/01/06 08:33:49;;;;;;;2.67;2.53;;;;;;;-1.37;83.29;102663.22;6299608;28;20281;-77
2021/01/06 08:36:59;;;;;;;2.97;2.77;;;;;;;-1.40;83.47;102658.06;6315767;28;20199;-78
2021/01/06 08:40:07;;;;;;;3.23;3.13;;;;;;;-1.34;84.32;102669.28;6313734;28;20228;-77
2021/01/06 08:43:17;;;;;;;3.03;2.93;;;;;;;-1.30;84.20;102649.34;6306300;28;20190;-77
2021/01/06 08:46:27;;;;;;;3.33;3.10;;;;;;;-1.19;84.19;102651.38;6303657;28;20214;-77
2021/01/06 08:49:32;;;;;;;2.83;2.73;;;;;;;-1.32;83.51;102629.00;6314639;28;20379;-77
2021/01/06 08:52:36;;;;;;;3.03;2.93;;;;;;;-1.27;83.26;102654.53;6305275;28;20225;-77
2021/01/06 08:55:42;;;;;;;3.37;3.17;;;;;;;-1.20;83.89;102654.13;6310145;28;20205;-77
2021/01/06 08:58:48;;;;;;;3.33;2.60;;;;;;;-1.22;83.46;102645.31;6301173;28;20202;-77
2021/01/06 09:01:58;;;;;;;2.90;2.70;;;;;;;-1.10;83.65;102652.56;6306086;28;20200;-77
2021/01/06 09:05:01;;;;;;;3.20;2.83;;;;;;;-1.16;83.82;102650.31;6309576;28;20217;-77
2021/01/06 09:08:12;;;;;;;2.80;2.70;;;;;;;-1.11;82.96;102648.19;6290793;28;20198;-77
2021/01/06 09:11:22;;;;;;;2.67;2.67;;;;;;;-1.13;83.40;102650.13;6295150;28;20259;-78
2021/01/06 09:14:31;;;;;;;2.73;2.63;;;;;;;-1.12;82.93;102619.66;6310997;28;20230;-77
2021/01/06 09:17:41;;;;;;;3.60;3.40;;;;;;;-1.10;83.05;102633.81;6306202;28;20197;-77
2021/01/06 09:21:02;;;;;;;3.20;2.90;;;;;;;-1.00;82.74;102645.69;6314303;28;20241;-77
2021/01/06 09:24:12;;;;;;;2.63;2.53;;;;;;;-1.06;83.12;102638.03;6329224;28;20222;-76
2021/01/06 09:27:27;;;;;;;2.70;2.50;;;;;;;-1.00;83.17;102633.13;6312586;28;20292;-78
2021/01/06 09:30:36;;;;;;;2.73;2.53;;;;;;;-0.92;82.90;102629.97;6313023;28;20237;-78
2021/01/06 09:33:47;;;;;;;3.97;2.90;;;;;;;-0.88;82.93;102623.44;6308722;28;20232;-77
2021/01/06 09:36:51;;;;;;;3.10;3.00;;;;;;;-0.85;82.46;102609.84;6305682;28;20205;-76
2021/01/06 09:40:12;;;;;;;2.83;2.73;;;;;;;-0.77;82.73;102611.06;6298860;28;20266;-79
2021/01/06 09:43:35;;;;;;;3.93;3.30;;;;;;;-0.87;83.24;102603.72;6297997;28;20590;-77
2021/01/06 09:46:46;;;;;;;2.90;2.80;;;;;;;-1.11;83.94;102578.53;6308279;28;20349;-77
2021/01/06 09:49:56;;;;;;;3.00;2.90;;;;;;;-0.94;83.51;102594.38;6300436;28;20287;-78
2021/01/06 09:53:04;;;;;;;2.67;2.57;;;;;;;-0.99;84.65;102600.03;6309612;28;20196;-76
2021/01/06 09:56:14;;;;;;;4.87;3.07;;;;;;;-0.97;86.31;102592.75;6310269;28;20209;-77
2021/01/06 09:59:24;;;;;;;3.60;3.30;;;;;;;-0.95;86.28;102603.38;6309897;28;20252;-77
2021/01/06 10:02:30;;;;;;;3.30;3.20;;;;;;;-0.89;86.75;102597.59;6307851;28;20202;-79
2021/01/06 10:05:53;;;;;;;3.10;2.93;;;;;;;-0.91;87.30;102602.22;6327816;28;20396;-79
2021/01/06 10:09:02;;;;;;;2.97;2.87;;;;;;;-0.97;87.16;102597.25;6329772;28;20275;-79
2021/01/06 10:12:31;;;;;;;3.00;2.90;;;;;;;-0.85;86.92;102597.28;6328329;28;20221;-79
2021/01/06 10:15:47;;;;;;;3.10;2.90;;;;;;;-0.92;87.99;102579.03;6328780;28;20198;-78
2021/01/06 10:19:02;;;;;;;3.33;3.23;;;;;;;-0.89;88.60;102589.56;6319822;28;20266;-78
2021/01/06 10:22:44;;;;;;;2.60;2.50;;;;;;;-0.86;88.70;102584.00;6331630;28;20202;-77
2021/01/06 10:25:54;;;;;;;2.80;2.70;;;;;;;-0.80;88.40;102580.94;6223449;28;20234;-79
2021/01/06 10:29:11;;;;;;;3.33;3.23;;;;;;;-0.78;89.06;102560.25;6318888;28;20222;-77
2021/01/06 10:32:38;;;;;;;3.10;3.00;;;;;;;-0.78;89.42;102550.38;6316600;28;20202;-77
2021/01/06 10:36:09;;;;;;;2.70;2.60;;;;;;;-0.79;89.77;102563.88;6316840;28;20206;-77
2021/01/06 10:39:22;;;;;;;3.40;3.20;;;;;;;-0.66;90.33;102570.13;6304336;28;20664;-77
2021/01/06 10:42:36;;;;;;;3.43;3.33;;;;;;;-0.72;90.73;102562.53;6316129;28;20188;-77
2021/01/06 10:45:47;;;;;;;3.47;3.23;;;;;;;-0.67;90.74;102573.81;6312752;28;20219;-78
2021/01/06 10:48:51;;;;;;;3.13;3.00;;;;;;;-0.71;90.20;102545.47;6315238;28;20272;-77
2021/01/06 10:52:15;;;;;;;4.10;3.80;;;;;;;-0.70;90.68;102560.59;6315062;28;20894;-77
2021/01/06 10:55:37;;;;;;;4.07;3.87;;;;;;;-0.68;90.98;102567.56;6317809;28;20204;-77
2021/01/06 10:58:47;;;;;;;3.43;3.23;;;;;;;-0.63;90.41;102553.84;6318402;28;20211;-77
2021/01/06 11:02:13;;;;;;;3.80;3.50;;;;;;;-0.63;91.71;102559.22;6308673;28;20200;-78
2021/01/06 11:05:23;;;;;;;3.40;3.20;;;;;;;-0.67;90.91;102557.72;6301622;28;20212;-77
2021/01/06 11:08:54;;;;;;;3.60;3.40;;;;;;;-0.56;91.02;102549.78;6317440;28;20204;-79
2021/01/06 11:12:18;;;;;;;3.20;3.10;;;;;;;-0.67;90.63;102536.28;6326624;28;20283;-76
2021/01/06 11:15:38;;;;;;;3.97;3.77;;;;;;;-0.63;90.63;102513.63;6306528;28;20212;-77
2021/01/06 11:18:49;;;;;;;3.63;3.43;;;;;;;-0.54;89.96;102515.72;6327332;28;20258;-78
2021/01/06 11:22:04;;;;;;;3.77;3.57;;;;;;;-0.47;89.84;102517.00;6316118;28;20282;-77
2021/01/06 11:25:48;;;;;;;3.57;3.40;;;;;;;-0.47;89.00;102516.13;6318419;28;20306;-76
2021/01/06 11:28:56;;;;;;;3.30;3.20;;;;;;;-0.43;89.91;102521.19;6285275;28;20228;-78
2021/01/06 11:32:40;;;;;;;3.47;3.30;;;;;;;-0.43;89.83;102502.41;6301167;28;20352;-76
2021/01/06 11:35:51;;;;;;;4.43;4.03;;;;;;;-0.34;89.60;102491.06;6320407;28;20208;-77
2021/01/06 11:38:57;;;;;;;3.70;3.50;;;;;;;-0.31;88.81;102496.19;6304249;28;20198;-77
2021/01/06 11:42:10;;;;;;;3.47;3.37;;;;;;;-0.25;88.41;102501.13;6292436;28;20283;-77
2021/01/06 11:45:23;;;;;;;3.77;3.50;;;;;;;-0.27;88.32;102476.25;6320441;28;20204;-78
2021/01/06 11:48:37;;;;;;;3.63;3.50;;;;;;;-0.28;88.31;102485.25;6311399;28;20215;-77
2021/01/06 11:51:41;;;;;;;3.83;3.30;;;;;;;-0.16;88.19;102484.41;6311751;28;20307;-77
2021/01/06 11:54:50;;;;;;;4.43;3.40;;;;;;;-0.26;88.18;102477.09;6312637;28;20312;-78
2021/01/06 11:58:15;;;;;;;3.43;3.13;;;;;;;-0.19;87.98;102467.66;6309586;28;20187;-77
2021/01/06 12:01:50;;;;;;;3.33;3.20;;;;;;;-0.19;87.80;102473.88;6305895;28;20562;-77
2021/01/06 12:05:07;;;;;;;3.37;3.17;;;;;;;-0.26;87.43;102440.41;6311019;28;20712;-78
2021/01/06 12:08:22;;;;;;;3.23;3.10;;;;;;;-0.20;86.61;102456.06;6311487;28;20193;-78
2021/01/06 12:11:31;;;;;;;4.40;3.20;;;;;;;-0.17;86.77;102465.72;6314232;28;20570;-78
2021/01/06 12:14:43;;;;;;;3.43;3.20;;;;;;;-0.21;87.52;102453.50;6307628;28;20199;-78
2021/01/06 12:17:52;;;;;;;3.50;3.40;;;;;;;0.03;87.09;102449.03;6311631;28;20208;-79
2021/01/06 12:21:01;;;;;;;3.77;3.57;;;;;;;0.03;86.42;102434.78;6306998;28;20364;-76
2021/01/06 12:24:31;;;;;;;3.30;3.10;;;;;;;-0.07;86.45;102416.66;6297490;28;20519;-77
2021/01/06 12:27:52;;;;;;;3.57;3.37;;;;;;;0.02;86.02;102427.69;6305899;28;20686;-76
2021/01/06 12:31:11;;;;;;;4.70;3.17;;;;;;;-0.05;86.26;102425.44;6306117;28;20429;-77
2021/01/06 12:34:26;;;;;;;3.53;3.33;;;;;;;-0.02;85.38;102427.91;6305478;28;20303;-77
2021/01/06 12:37:36;;;;;;;3.23;2.93;;;;;;;-0.17;86.14;102418.28;6298391;28;20201;-77
2021/01/06 12:40:58;;;;;;;3.43;3.33;;;;;;;-0.17;86.50;102412.91;6327843;28;20214;-77
2021/01/06 12:44:17;;;;;;;5.43;3.53;;;;;;;0.06;86.24;102418.44;6301030;28;20286;-76
2021/01/06 12:47:27;;;;;;;6.13;3.20;;;;;;;0.28;85.37;102413.25;6303918;28;20207;-76
2021/01/06 12:50:41;;;;;;;3.23;3.10;;;;;;;0.14;84.96;102408.03;6301544;28;20220;-77
2021/01/06 12:53:55;;;;;;;3.40;3.20;;;;;;;0.26;84.93;102410.66;6309744;28;20322;-77
2021/01/06 12:57:05;;;;;;;3.20;3.00;;;;;;;0.23;83.87;102410.03;6310651;28;20313;-78
2021/01/06 13:00:26;;;;;;;2.57;2.57;;;;;;;0.23;83.96;102415.41;6306249;28;20199;-75
2021/01/06 13:03:50;;;;;;;13.00;3.43;;;;;;;0.20;84.46;102404.91;6300462;28;20593;-75
2021/01/06 13:07:06;;;;;;;3.17;3.07;;;;;;;0.21;84.39;102401.22;6310189;28;20241;-77
2021/01/06 13:10:28;;;;;;;2.97;2.87;;;;;;;0.15;85.40;102402.56;6312607;28;20282;-77
2021/01/06 13:13:35;;;;;;;3.30;3.10;;;;;;;-0.04;84.31;102376.19;6311545;28;20667;-78
2021/01/06 13:16:48;;;;;;;3.50;3.20;;;;;;;0.05;84.50;102395.28;6319004;28;20432;-79
2021/01/06 13:20:35;;;;;;;3.10;2.87;;;;;;;0.03;84.53;102381.13;6317297;28;20199;-77
2021/01/06 13:23:47;;;;;;;3.07;2.97;;;;;;;-0.01;84.58;102381.34;6316142;28;20223;-79
2021/01/06 13:27:00;;;;;;;2.87;2.80;;;;;;;0.07;85.29;102393.34;6314892;28;20611;-77
2021/01/06 13:30:17;;;;;;;2.93;2.83;;;;;;;0.10;84.73;102371.66;6312641;28;20211;-79
2021/01/06 13:33:50;;;;;;;2.93;2.83;;;;;;;-0.05;83.99;102374.47;6313528;28;20200;-80
2021/01/06 13:36:57;;;;;;;2.90;2.80;;;;;;;0.03;84.26;102365.03;6314539;28;20206;-78
2021/01/06 13:40:15;;;;;;;3.03;2.83;;;;;;;0.11;84.22;102378.72;6313127;28;20192;-77
2021/01/06 13:43:31;;;;;;;2.80;2.80;;;;;;;0.14;84.22;102367.75;6310684;28;20199;-78
2021/01/06 13:46:52;;;;;;;3.00;2.70;;;;;;;-0.11;84.70;102348.09;6334394;28;20265;-78
2021/01/06 13:50:10;;;;;;;2.93;2.70;;;;;;;0.14;84.79;102367.75;6323432;28;20282;-78
2021/01/06 13:53:29;;;;;;;3.50;3.10;;;;;;;-0.16;85.27;102323.44;6320194;28;20233;-77
2021/01/06 13:56:44;;;;;;;3.17;3.07;;;;;;;0.04;85.42;102367.59;6313542;28;20213;-75
2021/01/06 14:00:00;;;;;;;3.07;2.77;;;;;;;-0.01;85.56;102359.88;6311640;28;20204;-75
2021/01/06 14:03:23;;;;;;;2.83;2.63;;;;;;;0.07;85.48;102371.88;6309676;28;20197;-74
2021/01/06 14:06:29;;;;;;;3.23;3.13;;;;;;;0.09;85.40;102377.97;6306404;28;20261;-76
2021/01/06 14:09:53;;;;;;;2.87;2.77;;;;;;;0.09;85.13;102367.25;6311553;28;20203;-77
2021/01/06 14:13:22;;;;;;;3.33;3.13;;;;;;;0.13;84.75;102360.69;6286515;28;20198;-77
2021/01/06 14:16:51;;;;;;;3.23;3.10;;;;;;;0.13;85.17;102366.06;6306439;28;20299;-79
2021/01/06 14:20:02;;;;;;;2.67;2.57;;;;;;;0.08;85.22;102363.69;6316754;28;20312;-76
2021/01/06 14:23:24;;;;;;;2.83;2.63;;;;;;;0.07;84.98;102361.13;6304088;28;20432;-76
2021/01/06 14:26:34;;;;;;;3.30;3.10;;;;;;;0.10;85.07;102355.53;6301674;28;20650;-77
2021/01/06 14:30:06;;;;;;;3.17;2.97;;;;;;;-0.11;85.01;102315.91;6288370;28;20209;-78
2021/01/06 14:33:25;;;;;;;3.50;3.07;;;;;;;0.11;85.16;102352.72;6284564;28;20201;-78
2021/01/06 14:36:43;;;;;;;3.30;3.10;;;;;;;0.12;84.79;102358.97;6273682;28;20583;-79
2021/01/06 14:39:53;;;;;;;2.37;2.27;;;;;;;-0.01;84.22;102316.06;6292127;28;20606;-77
2021/01/06 14:43:05;;;;;;;4.00;2.87;;;;;;;0.04;84.52;102324.66;6284948;28;20227;-78
2021/01/06 14:46:25;;;;;;;2.87;2.77;;;;;;;0.15;84.29;102348.88;6286694;28;20781;-77
2021/01/06 14:49:34;;;;;;;3.00;2.80;;;;;;;0.08;84.95;102319.91;6284091;28;20202;-77
2021/01/06 14:52:58;;;;;;;3.10;3.00;;;;;;;0.23;84.57;102341.09;6301962;28;20221;-78
2021/01/06 14:56:09;;;;;;;3.00;2.80;;;;;;;0.12;84.43;102324.06;6286494;28;20285;-78
2021/01/06 14:59:28;;;;;;;2.97;2.73;;;;;;;0.20;83.84;102327.91;6298807;28;20855;-79
2021/01/06 15:02:38;;;;;;;2.93;2.83;;;;;;;0.12;83.97;102310.66;6289164;28;20212;-78